Skip Navigation Links Skip Navigation Links

Current Weather

Stafford Regional, Stafford, Va.

For information only: do not use for flight planning or navigation.
Latest weather
Observation time Wednesday, December 2, 2020 10:15 PM EST
Local time Wednesday, December 2, 2020 10:42 PM EST
Flight conditions Visual Meteorological Conditions
Winds
Wind speed calm
Visibility 10 mi.
Sky condition
Ceiling unlimited
Sky clear
Temperature 31°F
Dewpoint 23°F
Altimeter 30.30 in.Hg
Derived measurements
Relative humidity 73%
Wind chill 31°F
Density altitude -2092 ft.
Remarks
Fully automated report.
Automated weather observing station with precipitation discriminator.
METAR KRMN 030315Z AUTO 00000KT 10SM CLR M01/M05 A3030 RMK AO2 T10081051

Settings

Location code

InnerDrive.Weather 4.0.6770.0 Release CLR 4.0.30319.42000
Copyright ©2018 Inner Drive Technology. All rights reserved. Portions Copyright ©1986-2018 David Braverman.

Find weather

Site navigation


Skip Navigation Links

Place info

Page info

PayPal - The safer, easier way to pay online!

Return home.

Copyright ©2020 Inner Drive Technology. Purveyors of fine, hand-crafted computer software. Page printed 2020-12-03T03:42:27 UTC.